SFR524 FALA-FAPE
Flight info
| Callsign | SFR524 |
|---|---|
| Flight time | 1h 21m |
| Altitude | 36000 |
| Route | JSV DCT HGV UZ16 NEVEN UQ8 ALKAT DCT PEV |
| Aircraft | B738/M-SDE2E3FGHIRWXY/LB1 |
Departure
| Time | 2026-05-06 14:20 |
|---|---|
| Airport | Lanseria International Airport (FALA) |
Arrival
| Time | 2026-05-06 15:41 |
|---|---|
| Airport | Chief Dawid Stuurman International Airport (FAPE) |
| Time | Latitude | Longitude | Altitude | Speed | Heading |
|---|---|---|---|---|---|
| 2026-05-06 14:08 | -25.93587 | 27.92570 | 4523 ft | 0 kts | 317° |
| 2026-05-06 14:12 | -25.93597 | 27.92581 | 4523 ft | 2 kts | 320° |
| 2026-05-06 14:12 | -25.93610 | 27.92592 | 4519 ft | 2 kts | 326° |
| 2026-05-06 14:12 | -25.93625 | 27.92601 | 4521 ft | 2 kts | 345° |
| 2026-05-06 14:12 | -25.93641 | 27.92600 | 4520 ft | 2 kts | 35° |
| 2026-05-06 14:13 | -25.93648 | 27.92593 | 4520 ft | 1 kts | 47° |
| 2026-05-06 14:13 | -25.93649 | 27.92592 | 4520 ft | 0 kts | 47° |
| 2026-05-06 14:15 | -25.93641 | 27.92601 | 4522 ft | 8 kts | 47° |
| 2026-05-06 14:16 | -25.93591 | 27.92661 | 4522 ft | 12 kts | 47° |
| 2026-05-06 14:16 | -25.93536 | 27.92729 | 4522 ft | 12 kts | 47° |
| 2026-05-06 14:16 | -25.93531 | 27.92792 | 4522 ft | 8 kts | 101° |
| 2026-05-06 14:16 | -25.93509 | 27.92848 | 4522 ft | 9 kts | 45° |
| 2026-05-06 14:17 | -25.93463 | 27.92901 | 4522 ft | 14 kts | 47° |
| 2026-05-06 14:17 | -25.93364 | 27.93020 | 4522 ft | 25 kts | 47° |
| 2026-05-06 14:17 | -25.93251 | 27.93157 | 4522 ft | 23 kts | 47° |
| 2026-05-06 14:17 | -25.93145 | 27.93286 | 4522 ft | 22 kts | 47° |
| 2026-05-06 14:18 | -25.93041 | 27.93411 | 4521 ft | 22 kts | 47° |
| 2026-05-06 14:18 | -25.92938 | 27.93533 | 4521 ft | 21 kts | 47° |
| 2026-05-06 14:18 | -25.92862 | 27.93648 | 4520 ft | 14 kts | 91° |
| 2026-05-06 14:18 | -25.92924 | 27.93723 | 4517 ft | 14 kts | 143° |
| 2026-05-06 14:19 | -25.93014 | 27.93732 | 4516 ft | 14 kts | 226° |
| 2026-05-06 14:19 | -25.93079 | 27.93649 | 4517 ft | 17 kts | 227° |
| 2026-05-06 14:19 | -25.93303 | 27.93377 | 4519 ft | 81 kts | 227° |
| 2026-05-06 14:19 | -25.93825 | 27.92753 | 4517 ft | 138 kts | 225° |
| 2026-05-06 14:20 | -25.94576 | 27.91817 | 4564 ft | 182 kts | 227° |
| 2026-05-06 14:20 | -25.95467 | 27.90788 | 5233 ft | 185 kts | 228° |
| 2026-05-06 14:20 | -25.96382 | 27.89816 | 6151 ft | 177 kts | 228° |
| 2026-05-06 14:20 | -25.97308 | 27.88877 | 6726 ft | 190 kts | 227° |
| 2026-05-06 14:21 | -25.98337 | 27.87808 | 6900 ft | 212 kts | 233° |
| 2026-05-06 14:21 | -25.98945 | 27.86284 | 7040 ft | 227 kts | 268° |
| 2026-05-06 14:21 | -25.98489 | 27.84616 | 7524 ft | 236 kts | 306° |
| 2026-05-06 14:21 | -25.97126 | 27.83512 | 7799 ft | 265 kts | 340° |
| 2026-05-06 14:22 | -25.95230 | 27.83441 | 8375 ft | 283 kts | 7° |
| 2026-05-06 14:22 | -25.93368 | 27.84233 | 9135 ft | 293 kts | 29° |
| 2026-05-06 14:22 | -25.91895 | 27.85824 | 9954 ft | 302 kts | 55° |
| 2026-05-06 14:22 | -25.91128 | 27.88042 | 10451 ft | 320 kts | 80° |
| 2026-05-06 14:23 | -25.91221 | 27.90599 | 10618 ft | 345 kts | 103° |
| 2026-05-06 14:23 | -25.92023 | 27.93182 | 10895 ft | 363 kts | 118° |
| 2026-05-06 14:23 | -25.93587 | 27.95422 | 11264 ft | 373 kts | 140° |
| 2026-05-06 14:23 | -25.95632 | 27.97236 | 11812 ft | 378 kts | 149° |
| 2026-05-06 14:24 | -25.97892 | 27.98654 | 12419 ft | 378 kts | 161° |
| 2026-05-06 14:24 | -26.00349 | 27.99722 | 13081 ft | 381 kts | 165° |
| 2026-05-06 14:24 | -26.02858 | 28.00729 | 13728 ft | 386 kts | 166° |
| 2026-05-06 14:24 | -26.05402 | 28.01733 | 14438 ft | 387 kts | 166° |
| 2026-05-06 14:25 | -26.07956 | 28.02749 | 15071 ft | 391 kts | 166° |
| 2026-05-06 14:25 | -26.10535 | 28.03784 | 15581 ft | 398 kts | 166° |
| 2026-05-06 14:25 | -26.13159 | 28.04850 | 16133 ft | 404 kts | 166° |
| 2026-05-06 14:25 | -26.15809 | 28.05935 | 16715 ft | 407 kts | 166° |
| 2026-05-06 14:26 | -26.18486 | 28.07037 | 17103 ft | 417 kts | 166° |
| 2026-05-06 14:26 | -26.21271 | 28.08180 | 17281 ft | 432 kts | 166° |
| 2026-05-06 14:26 | -26.24115 | 28.09344 | 17798 ft | 435 kts | 168° |
| 2026-05-06 14:26 | -26.27032 | 28.10140 | 18313 ft | 431 kts | 178° |
| 2026-05-06 14:27 | -26.29973 | 28.10486 | 18853 ft | 422 kts | 185° |
| 2026-05-06 14:27 | -26.32898 | 28.10602 | 19479 ft | 422 kts | 186° |
| 2026-05-06 14:27 | -26.35868 | 28.10693 | 19800 ft | 431 kts | 187° |
| 2026-05-06 14:27 | -26.38891 | 28.10782 | 20146 ft | 438 kts | 187° |
| 2026-05-06 14:28 | -26.41953 | 28.10882 | 20563 ft | 443 kts | 187° |
| 2026-05-06 14:28 | -26.45045 | 28.10996 | 20978 ft | 448 kts | 187° |
| 2026-05-06 14:28 | -26.48177 | 28.11118 | 21350 ft | 453 kts | 187° |
| 2026-05-06 14:28 | -26.51362 | 28.11248 | 21715 ft | 459 kts | 187° |
| 2026-05-06 14:29 | -26.54567 | 28.11382 | 22082 ft | 464 kts | 187° |
| 2026-05-06 14:29 | -26.57805 | 28.11519 | 22547 ft | 467 kts | 187° |
| 2026-05-06 14:29 | -26.61060 | 28.11658 | 22956 ft | 470 kts | 187° |
| 2026-05-06 14:29 | -26.64318 | 28.11795 | 23250 ft | 476 kts | 188° |
| 2026-05-06 14:30 | -26.67656 | 28.11934 | 23569 ft | 481 kts | 188° |
| 2026-05-06 14:30 | -26.71017 | 28.12075 | 23883 ft | 484 kts | 188° |
| 2026-05-06 14:30 | -26.74396 | 28.12220 | 24232 ft | 485 kts | 188° |
| 2026-05-06 14:30 | -26.77776 | 28.12365 | 24617 ft | 486 kts | 188° |
| 2026-05-06 14:31 | -26.81157 | 28.12510 | 24973 ft | 487 kts | 188° |
| 2026-05-06 14:31 | -26.84509 | 28.12652 | 25500 ft | 484 kts | 187° |
| 2026-05-06 14:31 | -26.87868 | 28.12798 | 26063 ft | 481 kts | 187° |
| 2026-05-06 14:31 | -26.91230 | 28.12939 | 26277 ft | 486 kts | 187° |
| 2026-05-06 14:32 | -26.94624 | 28.13076 | 26468 ft | 491 kts | 187° |
| 2026-05-06 14:32 | -26.98051 | 28.13217 | 26758 ft | 493 kts | 187° |
| 2026-05-06 14:32 | -27.01485 | 28.13363 | 27083 ft | 495 kts | 187° |
| 2026-05-06 14:32 | -27.04931 | 28.13510 | 27357 ft | 497 kts | 187° |
| 2026-05-06 14:33 | -27.08356 | 28.13655 | 27618 ft | 499 kts | 187° |
| 2026-05-06 14:33 | -27.11832 | 28.13802 | 27947 ft | 501 kts | 186° |
| 2026-05-06 14:33 | -27.15326 | 28.13935 | 28203 ft | 501 kts | 189° |
| 2026-05-06 14:33 | -27.18776 | 28.13714 | 28451 ft | 491 kts | 198° |
| 2026-05-06 14:34 | -27.22064 | 28.12922 | 28790 ft | 479 kts | 206° |
| 2026-05-06 14:34 | -27.25271 | 28.11917 | 29157 ft | 478 kts | 206° |
| 2026-05-06 14:34 | -27.28474 | 28.10899 | 29478 ft | 478 kts | 207° |
| 2026-05-06 14:34 | -27.31690 | 28.09892 | 29794 ft | 480 kts | 206° |
| 2026-05-06 14:35 | -27.34918 | 28.08905 | 30110 ft | 480 kts | 206° |
| 2026-05-06 14:35 | -27.38143 | 28.07936 | 30437 ft | 481 kts | 206° |
| 2026-05-06 14:35 | -27.41379 | 28.06971 | 30736 ft | 481 kts | 206° |
| 2026-05-06 14:35 | -27.44554 | 28.06025 | 31173 ft | 476 kts | 205° |
| 2026-05-06 14:36 | -27.47741 | 28.05075 | 31663 ft | 471 kts | 205° |
| 2026-05-06 14:36 | -27.50887 | 28.04083 | 31947 ft | 468 kts | 207° |
| 2026-05-06 14:36 | -27.54005 | 28.03001 | 32134 ft | 469 kts | 208° |
| 2026-05-06 14:36 | -27.57120 | 28.01877 | 32335 ft | 471 kts | 208° |
| 2026-05-06 14:37 | -27.60240 | 28.00745 | 32629 ft | 470 kts | 208° |
| 2026-05-06 14:37 | -27.63355 | 27.99625 | 32948 ft | 469 kts | 208° |
| 2026-05-06 14:37 | -27.66470 | 27.98513 | 33300 ft | 469 kts | 207° |
| 2026-05-06 14:37 | -27.69591 | 27.97406 | 33493 ft | 471 kts | 207° |
| 2026-05-06 14:38 | -27.72726 | 27.96298 | 33724 ft | 472 kts | 207° |
| 2026-05-06 14:38 | -27.75864 | 27.95191 | 33975 ft | 472 kts | 207° |
| 2026-05-06 14:38 | -27.82164 | 27.92967 | 33993 ft | 474 kts | 207° |
| 2026-05-06 14:39 | -27.88399 | 27.90767 | 33984 ft | 470 kts | 207° |
| 2026-05-06 14:39 | -27.94618 | 27.88563 | 34003 ft | 468 kts | 207° |
| 2026-05-06 14:40 | -28.00828 | 27.86355 | 33984 ft | 466 kts | 208° |
| 2026-05-06 14:40 | -28.05971 | 27.84469 | 33978 ft | 466 kts | 208° |
| 2026-05-06 14:41 | -28.13123 | 27.81815 | 33970 ft | 466 kts | 208° |
| 2026-05-06 14:41 | -28.18257 | 27.79913 | 33970 ft | 467 kts | 208° |
| 2026-05-06 14:42 | -28.24467 | 27.77612 | 33981 ft | 473 kts | 208° |
| 2026-05-06 14:42 | -28.30775 | 27.75275 | 33974 ft | 479 kts | 208° |
| 2026-05-06 14:43 | -28.37125 | 27.72925 | 33968 ft | 481 kts | 207° |
| 2026-05-06 14:43 | -28.43466 | 27.70575 | 33950 ft | 482 kts | 208° |
| 2026-05-06 14:44 | -28.49828 | 27.68213 | 33949 ft | 479 kts | 208° |
| 2026-05-06 14:45 | -28.59314 | 27.64690 | 33961 ft | 475 kts | 208° |
| 2026-05-06 14:45 | -28.65587 | 27.62357 | 33953 ft | 473 kts | 208° |
| 2026-05-06 14:46 | -28.71829 | 27.60030 | 33957 ft | 471 kts | 208° |
| 2026-05-06 14:46 | -28.78019 | 27.57718 | 33955 ft | 470 kts | 208° |
| 2026-05-06 14:47 | -28.84251 | 27.55385 | 33966 ft | 472 kts | 208° |
| 2026-05-06 14:47 | -28.90516 | 27.53038 | 33954 ft | 474 kts | 208° |
| 2026-05-06 14:48 | -28.96800 | 27.50685 | 33963 ft | 475 kts | 208° |
| 2026-05-06 14:48 | -29.03068 | 27.48334 | 33958 ft | 476 kts | 208° |
| 2026-05-06 14:49 | -29.09353 | 27.45975 | 34008 ft | 475 kts | 207° |
| 2026-05-06 14:49 | -29.15588 | 27.43637 | 33976 ft | 468 kts | 207° |
| 2026-05-06 14:50 | -29.21743 | 27.41318 | 33988 ft | 468 kts | 207° |
| 2026-05-06 14:50 | -29.27942 | 27.38976 | 33989 ft | 469 kts | 207° |
| 2026-05-06 14:51 | -29.34150 | 27.36630 | 33995 ft | 470 kts | 207° |
| 2026-05-06 14:51 | -29.40368 | 27.34278 | 33998 ft | 471 kts | 206° |
| 2026-05-06 14:52 | -29.46598 | 27.31921 | 33991 ft | 471 kts | 206° |
| 2026-05-06 14:52 | -29.52836 | 27.29557 | 33975 ft | 472 kts | 206° |
| 2026-05-06 14:53 | -29.59030 | 27.27207 | 33939 ft | 472 kts | 206° |
| 2026-05-06 14:53 | -29.65261 | 27.24839 | 33961 ft | 472 kts | 205° |
| 2026-05-06 14:54 | -29.71492 | 27.22468 | 33926 ft | 472 kts | 205° |
| 2026-05-06 14:54 | -29.77730 | 27.20093 | 33916 ft | 470 kts | 205° |
| 2026-05-06 14:55 | -29.83939 | 27.17725 | 33910 ft | 469 kts | 205° |
| 2026-05-06 14:55 | -29.90070 | 27.15388 | 33902 ft | 456 kts | 204° |
| 2026-05-06 14:56 | -29.96005 | 27.13120 | 33910 ft | 448 kts | 203° |
| 2026-05-06 14:56 | -30.01894 | 27.10885 | 33841 ft | 444 kts | 202° |
| 2026-05-06 14:57 | -30.07744 | 27.08650 | 33868 ft | 443 kts | 203° |
| 2026-05-06 14:57 | -30.13636 | 27.06361 | 33888 ft | 450 kts | 203° |
| 2026-05-06 14:58 | -30.19603 | 27.04054 | 33901 ft | 454 kts | 203° |
| 2026-05-06 14:58 | -30.25611 | 27.01741 | 33890 ft | 456 kts | 203° |
| 2026-05-06 14:59 | -30.31631 | 26.99423 | 33874 ft | 456 kts | 203° |
| 2026-05-06 14:59 | -30.37640 | 26.97105 | 33860 ft | 455 kts | 203° |
| 2026-05-06 15:00 | -30.43641 | 26.94788 | 33866 ft | 453 kts | 203° |
| 2026-05-06 15:00 | -30.49572 | 26.92493 | 33880 ft | 451 kts | 202° |
| 2026-05-06 15:01 | -30.55522 | 26.90187 | 33875 ft | 450 kts | 202° |
| 2026-05-06 15:01 | -30.61454 | 26.87886 | 33863 ft | 449 kts | 202° |
| 2026-05-06 15:02 | -30.67386 | 26.85581 | 33852 ft | 449 kts | 202° |
| 2026-05-06 15:02 | -30.73308 | 26.83278 | 33850 ft | 448 kts | 202° |
| 2026-05-06 15:03 | -30.79186 | 26.80989 | 33857 ft | 448 kts | 202° |
| 2026-05-06 15:03 | -30.85092 | 26.78683 | 33855 ft | 447 kts | 202° |
| 2026-05-06 15:04 | -30.90995 | 26.76373 | 33855 ft | 447 kts | 202° |
| 2026-05-06 15:04 | -30.96902 | 26.74059 | 33848 ft | 447 kts | 202° |
| 2026-05-06 15:05 | -31.02807 | 26.71746 | 33850 ft | 448 kts | 202° |
| 2026-05-06 15:05 | -31.08718 | 26.69425 | 33853 ft | 448 kts | 202° |
| 2026-05-06 15:06 | -31.14586 | 26.67117 | 33854 ft | 448 kts | 202° |
| 2026-05-06 15:06 | -31.20504 | 26.64786 | 33846 ft | 449 kts | 202° |
| 2026-05-06 15:07 | -31.26429 | 26.62451 | 33848 ft | 449 kts | 202° |
| 2026-05-06 15:07 | -31.32354 | 26.60112 | 33850 ft | 449 kts | 202° |
| 2026-05-06 15:08 | -31.38279 | 26.57770 | 33846 ft | 450 kts | 202° |
| 2026-05-06 15:08 | -31.44214 | 26.55421 | 33836 ft | 449 kts | 202° |
| 2026-05-06 15:09 | -31.50082 | 26.53096 | 33822 ft | 442 kts | 201° |
| 2026-05-06 15:09 | -31.55850 | 26.50807 | 33802 ft | 439 kts | 202° |
| 2026-05-06 15:10 | -31.61631 | 26.48510 | 33816 ft | 440 kts | 201° |
| 2026-05-06 15:10 | -31.67481 | 26.46184 | 33802 ft | 446 kts | 201° |
| 2026-05-06 15:11 | -31.73399 | 26.43826 | 33785 ft | 450 kts | 201° |
| 2026-05-06 15:11 | -31.79328 | 26.41467 | 33774 ft | 446 kts | 201° |
| 2026-05-06 15:12 | -31.85122 | 26.39153 | 33767 ft | 440 kts | 201° |
| 2026-05-06 15:12 | -31.90933 | 26.36830 | 33782 ft | 442 kts | 201° |
| 2026-05-06 15:13 | -31.96792 | 26.34483 | 33770 ft | 447 kts | 201° |
| 2026-05-06 15:13 | -32.02711 | 26.32119 | 33766 ft | 449 kts | 201° |
| 2026-05-06 15:14 | -32.08579 | 26.29774 | 33737 ft | 442 kts | 200° |
| 2026-05-06 15:14 | -32.14400 | 26.27437 | 33764 ft | 441 kts | 199° |
| 2026-05-06 15:15 | -32.20220 | 26.25102 | 33744 ft | 442 kts | 199° |
| 2026-05-06 15:15 | -32.26053 | 26.22759 | 33738 ft | 444 kts | 199° |
| 2026-05-06 15:16 | -32.31875 | 26.20415 | 33722 ft | 445 kts | 199° |
| 2026-05-06 15:16 | -32.37735 | 26.18050 | 33723 ft | 445 kts | 199° |
| 2026-05-06 15:17 | -32.43590 | 26.15684 | 33416 ft | 447 kts | 198° |
| 2026-05-06 15:17 | -32.46539 | 26.14491 | 32876 ft | 445 kts | 198° |
| 2026-05-06 15:17 | -32.49465 | 26.13307 | 32243 ft | 444 kts | 198° |
| 2026-05-06 15:17 | -32.52390 | 26.12122 | 31594 ft | 443 kts | 198° |
| 2026-05-06 15:18 | -32.55314 | 26.10936 | 30946 ft | 443 kts | 199° |
| 2026-05-06 15:18 | -32.58178 | 26.09716 | 30285 ft | 443 kts | 200° |
| 2026-05-06 15:18 | -32.61062 | 26.08422 | 29562 ft | 443 kts | 200° |
| 2026-05-06 15:18 | -32.63934 | 26.07109 | 28866 ft | 440 kts | 200° |
| 2026-05-06 15:19 | -32.66764 | 26.05810 | 28328 ft | 434 kts | 199° |
| 2026-05-06 15:19 | -32.69561 | 26.04530 | 27828 ft | 427 kts | 199° |
| 2026-05-06 15:19 | -32.72325 | 26.03272 | 27313 ft | 422 kts | 199° |
| 2026-05-06 15:19 | -32.75056 | 26.02033 | 26800 ft | 417 kts | 199° |
| 2026-05-06 15:20 | -32.77752 | 26.00814 | 26308 ft | 412 kts | 199° |
| 2026-05-06 15:20 | -32.80394 | 25.99620 | 25810 ft | 408 kts | 199° |
| 2026-05-06 15:20 | -32.83042 | 25.98424 | 25304 ft | 404 kts | 199° |
| 2026-05-06 15:20 | -32.85655 | 25.97243 | 24835 ft | 400 kts | 199° |
| 2026-05-06 15:21 | -32.88252 | 25.96069 | 24352 ft | 397 kts | 199° |
| 2026-05-06 15:21 | -32.90824 | 25.94905 | 23858 ft | 394 kts | 199° |
| 2026-05-06 15:21 | -32.93374 | 25.93751 | 23368 ft | 390 kts | 197° |
| 2026-05-06 15:21 | -32.95906 | 25.92605 | 22864 ft | 387 kts | 197° |
| 2026-05-06 15:22 | -32.98410 | 25.91469 | 22355 ft | 383 kts | 197° |
| 2026-05-06 15:22 | -33.00884 | 25.90345 | 21900 ft | 378 kts | 198° |
| 2026-05-06 15:22 | -33.03315 | 25.89240 | 21418 ft | 374 kts | 198° |
| 2026-05-06 15:22 | -33.05744 | 25.88137 | 20967 ft | 370 kts | 198° |
| 2026-05-06 15:23 | -33.08140 | 25.87047 | 20515 ft | 366 kts | 198° |
| 2026-05-06 15:23 | -33.10512 | 25.85969 | 20052 ft | 363 kts | 198° |
| 2026-05-06 15:23 | -33.12834 | 25.84912 | 19620 ft | 360 kts | 198° |
| 2026-05-06 15:23 | -33.15165 | 25.83851 | 19170 ft | 357 kts | 199° |
| 2026-05-06 15:24 | -33.17478 | 25.82798 | 18727 ft | 354 kts | 199° |
| 2026-05-06 15:24 | -33.19779 | 25.81749 | 18280 ft | 351 kts | 198° |
| 2026-05-06 15:24 | -33.22054 | 25.80713 | 17852 ft | 349 kts | 198° |
| 2026-05-06 15:24 | -33.24323 | 25.79677 | 17353 ft | 347 kts | 199° |
| 2026-05-06 15:25 | -33.26569 | 25.78652 | 16764 ft | 347 kts | 199° |
| 2026-05-06 15:25 | -33.28840 | 25.77616 | 16198 ft | 348 kts | 199° |
| 2026-05-06 15:25 | -33.31069 | 25.76597 | 15719 ft | 346 kts | 199° |
| 2026-05-06 15:25 | -33.33312 | 25.75571 | 15283 ft | 343 kts | 199° |
| 2026-05-06 15:26 | -33.35538 | 25.74553 | 14811 ft | 340 kts | 199° |
| 2026-05-06 15:26 | -33.37742 | 25.73543 | 14401 ft | 337 kts | 200° |
| 2026-05-06 15:26 | -33.39926 | 25.72542 | 13974 ft | 335 kts | 200° |
| 2026-05-06 15:26 | -33.42096 | 25.71547 | 13563 ft | 332 kts | 200° |
| 2026-05-06 15:27 | -33.44245 | 25.70561 | 13120 ft | 329 kts | 200° |
| 2026-05-06 15:27 | -33.46381 | 25.69580 | 12685 ft | 326 kts | 200° |
| 2026-05-06 15:27 | -33.48464 | 25.68623 | 12264 ft | 323 kts | 199° |
| 2026-05-06 15:27 | -33.50492 | 25.67453 | 11732 ft | 326 kts | 211° |
| 2026-05-06 15:28 | -33.52260 | 25.65759 | 11324 ft | 324 kts | 218° |
| 2026-05-06 15:28 | -33.53390 | 25.64577 | 11034 ft | 323 kts | 218° |
| 2026-05-06 15:28 | -33.55077 | 25.62804 | 10632 ft | 320 kts | 217° |
| 2026-05-06 15:28 | -33.57264 | 25.60508 | 10282 ft | 310 kts | 217° |
| 2026-05-06 15:29 | -33.58870 | 25.58828 | 10029 ft | 303 kts | 217° |
| 2026-05-06 15:29 | -33.60445 | 25.57187 | 9783 ft | 296 kts | 216° |
| 2026-05-06 15:29 | -33.61492 | 25.56098 | 9616 ft | 292 kts | 216° |
| 2026-05-06 15:29 | -33.62995 | 25.54537 | 9378 ft | 286 kts | 216° |
| 2026-05-06 15:30 | -33.64488 | 25.52987 | 9110 ft | 281 kts | 216° |
| 2026-05-06 15:30 | -33.65956 | 25.51464 | 8850 ft | 277 kts | 216° |
| 2026-05-06 15:30 | -33.67403 | 25.49962 | 8591 ft | 272 kts | 216° |
| 2026-05-06 15:30 | -33.68826 | 25.48486 | 8333 ft | 268 kts | 215° |
| 2026-05-06 15:31 | -33.70228 | 25.47030 | 8075 ft | 265 kts | 216° |
| 2026-05-06 15:31 | -33.71613 | 25.45592 | 7814 ft | 261 kts | 216° |
| 2026-05-06 15:31 | -33.72969 | 25.44182 | 7564 ft | 257 kts | 215° |
| 2026-05-06 15:32 | -33.75642 | 25.41403 | 7063 ft | 250 kts | 215° |
| 2026-05-06 15:32 | -33.76955 | 25.40037 | 6827 ft | 248 kts | 215° |
| 2026-05-06 15:32 | -33.78225 | 25.38715 | 6590 ft | 246 kts | 215° |
| 2026-05-06 15:32 | -33.79524 | 25.37363 | 6351 ft | 243 kts | 214° |
| 2026-05-06 15:33 | -33.80790 | 25.36028 | 6101 ft | 243 kts | 218° |
| 2026-05-06 15:33 | -33.81775 | 25.34337 | 5865 ft | 250 kts | 233° |
| 2026-05-06 15:33 | -33.82794 | 25.32702 | 5508 ft | 236 kts | 208° |
| 2026-05-06 15:33 | -33.84238 | 25.31938 | 5294 ft | 223 kts | 186° |
| 2026-05-06 15:34 | -33.85748 | 25.31842 | 5050 ft | 219 kts | 170° |
| 2026-05-06 15:34 | -33.87214 | 25.32305 | 4808 ft | 216 kts | 160° |
| 2026-05-06 15:34 | -33.88610 | 25.32932 | 4561 ft | 213 kts | 154° |
| 2026-05-06 15:34 | -33.89779 | 25.34069 | 4360 ft | 219 kts | 139° |
| 2026-05-06 15:35 | -33.90868 | 25.35361 | 4114 ft | 221 kts | 140° |
| 2026-05-06 15:35 | -33.91972 | 25.36656 | 3865 ft | 221 kts | 140° |
| 2026-05-06 15:35 | -33.93074 | 25.37944 | 3603 ft | 221 kts | 140° |
| 2026-05-06 15:35 | -33.94167 | 25.39219 | 3349 ft | 215 kts | 140° |
| 2026-05-06 15:36 | -33.95265 | 25.40343 | 3213 ft | 196 kts | 147° |
| 2026-05-06 15:36 | -33.96273 | 25.41282 | 3212 ft | 176 kts | 138° |
| 2026-05-06 15:36 | -33.97057 | 25.42360 | 3008 ft | 166 kts | 139° |
| 2026-05-06 15:36 | -33.97826 | 25.43333 | 2743 ft | 159 kts | 140° |
| 2026-05-06 15:37 | -33.98573 | 25.44247 | 2702 ft | 149 kts | 141° |
| 2026-05-06 15:37 | -33.99311 | 25.45128 | 2680 ft | 144 kts | 139° |
| 2026-05-06 15:37 | -33.99994 | 25.45935 | 2612 ft | 133 kts | 139° |
| 2026-05-06 15:37 | -34.00656 | 25.46710 | 2301 ft | 133 kts | 140° |
| 2026-05-06 15:38 | -34.01311 | 25.47476 | 2096 ft | 128 kts | 140° |
| 2026-05-06 15:38 | -34.01940 | 25.48209 | 1973 ft | 125 kts | 140° |
| 2026-05-06 15:38 | -34.02576 | 25.48947 | 1873 ft | 129 kts | 140° |
| 2026-05-06 15:38 | -34.03216 | 25.49730 | 1820 ft | 134 kts | 133° |
| 2026-05-06 15:39 | -34.03382 | 25.50862 | 1809 ft | 154 kts | 95° |
| 2026-05-06 15:39 | -34.03219 | 25.52146 | 1634 ft | 157 kts | 95° |
| 2026-05-06 15:39 | -34.02764 | 25.53436 | 1435 ft | 172 kts | 76° |
| 2026-05-06 15:39 | -34.02156 | 25.54658 | 1185 ft | 167 kts | 77° |
| 2026-05-06 15:40 | -34.01556 | 25.55823 | 1004 ft | 161 kts | 72° |
| 2026-05-06 15:40 | -34.00966 | 25.56972 | 789 ft | 159 kts | 66° |
| 2026-05-06 15:40 | -34.00369 | 25.58063 | 651 ft | 152 kts | 63° |
| 2026-05-06 15:40 | -33.99823 | 25.59157 | 422 ft | 154 kts | 54° |
| 2026-05-06 15:41 | -33.99259 | 25.60251 | 217 ft | 148 kts | 55° |
| 2026-05-06 15:41 | -33.98781 | 25.61168 | 215 ft | 101 kts | 58° |
| 2026-05-06 15:41 | -33.98523 | 25.61664 | 214 ft | 44 kts | 56° |
| 2026-05-06 15:41 | -33.98429 | 25.61847 | 217 ft | 28 kts | 58° |
| 2026-05-06 15:42 | -33.98339 | 25.61952 | 212 ft | 13 kts | 347° |
| 2026-05-06 15:42 | -33.98261 | 25.61901 | 212 ft | 13 kts | 328° |
| 2026-05-06 15:42 | -33.98220 | 25.61857 | 217 ft | 4 kts | 273° |
| 2026-05-06 15:42 | -33.98237 | 25.61816 | 215 ft | 10 kts | 239° |
| 2026-05-06 15:43 | -33.98284 | 25.61723 | 217 ft | 14 kts | 239° |
| 2026-05-06 15:43 | -33.98335 | 25.61623 | 214 ft | 14 kts | 237° |
| 2026-05-06 15:43 | -33.98385 | 25.61529 | 212 ft | 13 kts | 239° |
| 2026-05-06 15:43 | -33.98427 | 25.61434 | 216 ft | 13 kts | 246° |
| 2026-05-06 15:44 | -33.98461 | 25.61340 | 214 ft | 12 kts | 242° |
| 2026-05-06 15:44 | -33.98503 | 25.61258 | 213 ft | 2 kts | 241° |
| 2026-05-06 15:44 | -33.98495 | 25.61247 | 213 ft | 2 kts | 327° |
| 2026-05-06 15:44 | -33.98479 | 25.61236 | 214 ft | 3 kts | 329° |
| 2026-05-06 15:45 | -33.98459 | 25.61221 | 215 ft | 0 kts | 329° |
| 2026-05-06 15:45 | -33.98456 | 25.61219 | 214 ft | 1 kts | 329° |
| 2026-05-06 15:45 | -33.98455 | 25.61219 | 214 ft | 0 kts | 329° |